Time;durP1;ratioP1;P1;durP2;ratioP2;P2;SDS_P1;SDS_P2;PMS_P1;PMS_P2;Temp;Humidity;BMP_temperature;BMP_pressure;BME280_temperature;BME280_humidity;BME280_pressure;Samples;Min_cycle;Max_cycle;Signal;HPM_P1;HPM_P2
2021/01/17 00:00:32;;;;;;;21.20;8.30;;;;;;;;;;1772836;81;21214;-82
2021/01/17 00:03:01;;;;;;;17.80;7.57;;;;;;;;;;1748408;82;21133;-81
2021/01/17 00:05:28;;;;;;;18.67;8.10;;;;;;;;;;1748671;82;21164;-81
2021/01/17 00:07:54;;;;;;;21.67;9.27;;;;;;;;;;1749062;81;21644;-82
2021/01/17 00:10:22;;;;;;;22.57;10.07;;;;;;;;;;1748288;82;21169;-82
2021/01/17 00:12:48;;;;;;;20.13;9.20;;;;;;;;;;1747791;81;21608;-81
2021/01/17 00:15:14;;;;;;;24.13;8.57;;;;;;;;;;1748231;81;21213;-83
2021/01/17 00:17:41;;;;;;;20.30;9.17;;;;;;;;;;1748327;82;21154;-82
2021/01/17 00:20:10;;;;;;;21.07;9.17;;;;;;;;;;1748293;81;21193;-83
2021/01/17 00:22:36;;;;;;;23.40;9.17;;;;;;;;;;1748549;82;21280;-82
2021/01/17 00:25:05;;;;;;;27.47;9.97;;;;;;;;;;1748297;82;21150;-83
2021/01/17 00:27:32;;;;;;;25.13;10.23;;;;;;;;;;1748382;82;21392;-83
2021/01/17 00:29:58;;;;;;;25.17;9.43;;;;;;;;;;1748499;82;21608;-81
2021/01/17 00:32:24;;;;;;;21.20;7.90;;;;;;;;;;1748339;82;21185;-81
2021/01/17 00:34:50;;;;;;;14.87;6.23;;;;;;;;;;1748722;81;21550;-82
2021/01/17 00:37:16;;;;;;;18.67;7.60;;;;;;;;;;1748726;82;21160;-83
2021/01/17 00:39:42;;;;;;;21.20;9.83;;;;;;;;;;1750416;81;21613;-83
2021/01/17 00:42:12;;;;;;;19.30;8.47;;;;;;;;;;1772621;81;21173;-83
2021/01/17 00:44:39;;;;;;;16.50;7.63;;;;;;;;;;1772558;81;21156;-82
2021/01/17 00:47:05;;;;;;;19.10;8.73;;;;;;;;;;1772529;81;21577;-81
2021/01/17 00:49:31;;;;;;;15.50;7.37;;;;;;;;;;1772451;81;21130;-82
2021/01/17 00:52:00;;;;;;;21.53;9.53;;;;;;;;;;1769152;80;21603;-84
2021/01/17 00:54:26;;;;;;;18.30;8.50;;;;;;;;;;1715882;82;21192;-83
2021/01/17 00:56:52;;;;;;;13.57;6.50;;;;;;;;;;1748612;81;21177;-83
2021/01/17 00:59:18;;;;;;;22.33;9.07;;;;;;;;;;1748150;82;21154;-83
2021/01/17 01:01:46;;;;;;;23.83;9.43;;;;;;;;;;1748634;82;21161;-83
2021/01/17 01:04:13;;;;;;;18.30;8.30;;;;;;;;;;1748441;82;21193;-84
2021/01/17 01:06:40;;;;;;;17.27;7.90;;;;;;;;;;1748212;82;21165;-83
2021/01/17 01:09:08;;;;;;;22.17;7.37;;;;;;;;;;1748242;82;21205;-82
2021/01/17 01:11:34;;;;;;;19.20;8.27;;;;;;;;;;1747668;82;21169;-82
2021/01/17 01:14:00;;;;;;;19.90;9.17;;;;;;;;;;1750315;81;21298;-81
2021/01/17 01:16:26;;;;;;;19.67;9.40;;;;;;;;;;1748642;82;22221;-83
2021/01/17 01:18:52;;;;;;;22.20;8.53;;;;;;;;;;1748462;82;21338;-81
2021/01/17 01:21:26;;;;;;;19.77;8.50;;;;;;;;;;1748230;82;21580;-81
2021/01/17 01:23:52;;;;;;;28.13;8.67;;;;;;;;;;1748642;82;21266;-81
2021/01/17 01:26:20;;;;;;;20.30;8.27;;;;;;;;;;1748335;81;21224;-81
2021/01/17 01:28:46;;;;;;;22.20;9.83;;;;;;;;;;1748582;82;21140;-82
2021/01/17 01:31:19;;;;;;;18.60;8.73;;;;;;;;;;1748310;82;21611;-80
2021/01/17 01:33:45;;;;;;;21.83;8.40;;;;;;;;;;1748433;82;21568;-82
2021/01/17 01:36:19;;;;;;;21.90;8.57;;;;;;;;;;1748407;82;21148;-82
2021/01/17 01:38:46;;;;;;;20.17;8.97;;;;;;;;;;1747544;82;21133;-82
2021/01/17 01:41:12;;;;;;;23.10;8.17;;;;;;;;;;1749159;81;21199;-81
2021/01/17 01:43:38;;;;;;;20.30;8.53;;;;;;;;;;1712583;84;21157;-80
2021/01/17 01:46:05;;;;;;;12.90;6.57;;;;;;;;;;1712638;83;21160;-81
2021/01/17 01:48:31;;;;;;;16.73;8.53;;;;;;;;;;1712853;84;21160;-81
2021/01/17 01:50:57;;;;;;;17.33;8.47;;;;;;;;;;1748450;82;21160;-80
2021/01/17 01:53:23;;;;;;;23.57;9.00;;;;;;;;;;1758636;81;21182;-80
2021/01/17 01:55:49;;;;;;;13.93;7.67;;;;;;;;;;1772631;81;21160;-81
2021/01/17 01:58:16;;;;;;;16.03;7.37;;;;;;;;;;1772501;81;21122;-81
2021/01/17 02:00:42;;;;;;;26.00;8.77;;;;;;;;;;1771985;80;21153;-82
2021/01/17 02:03:08;;;;;;;19.80;9.10;;;;;;;;;;1772252;80;21181;-82
2021/01/17 02:05:34;;;;;;;18.00;7.23;;;;;;;;;;1712873;84;21164;-81
2021/01/17 02:08:14;;;;;;;17.50;8.47;;;;;;;;;;1716351;82;21136;-81
2021/01/17 02:10:40;;;;;;;18.93;8.13;;;;;;;;;;1716743;82;21168;-79
2021/01/17 02:13:08;;;;;;;28.20;9.30;;;;;;;;;;1712247;84;21902;-81
2021/01/17 02:15:35;;;;;;;17.33;7.30;;;;;;;;;;1741874;81;21222;-82
2021/01/17 02:18:02;;;;;;;22.50;8.37;;;;;;;;;;1748431;82;21156;-81
2021/01/17 02:20:28;;;;;;;25.77;9.90;;;;;;;;;;1752455;82;21164;-79
2021/01/17 02:23:02;;;;;;;21.90;8.63;;;;;;;;;;1756467;82;21571;-82
2021/01/17 02:25:36;;;;;;;28.50;9.37;;;;;;;;;;1756307;82;21275;-82
2021/01/17 02:28:06;;;;;;;15.90;7.60;;;;;;;;;;1726917;82;21191;-80
2021/01/17 02:30:34;;;;;;;15.47;7.20;;;;;;;;;;1756440;82;21187;-82
2021/01/17 02:33:01;;;;;;;22.17;8.67;;;;;;;;;;1756575;82;21136;-82
2021/01/17 02:35:31;;;;;;;22.30;8.30;;;;;;;;;;1756713;81;21186;-81
2021/01/17 02:38:05;;;;;;;15.63;7.40;;;;;;;;;;1727167;82;21173;-80
2021/01/17 02:40:45;;;;;;;20.00;8.33;;;;;;;;;;1756597;82;21181;-81
2021/01/17 02:43:11;;;;;;;19.73;7.17;;;;;;;;;;1776140;80;21441;-82
2021/01/17 02:45:37;;;;;;;19.77;8.20;;;;;;;;;;1788989;80;21144;-82
2021/01/17 02:48:04;;;;;;;18.20;7.47;;;;;;;;;;1789167;80;21286;-81
2021/01/17 02:50:31;;;;;;;17.63;7.67;;;;;;;;;;1789008;80;21164;-81
2021/01/17 02:53:01;;;;;;;19.97;8.03;;;;;;;;;;1788811;80;21180;-82
2021/01/17 02:55:30;;;;;;;15.87;7.57;;;;;;;;;;1743808;82;21726;-82
2021/01/17 02:57:56;;;;;;;17.40;8.03;;;;;;;;;;1779595;81;21553;-82
2021/01/17 03:00:22;;;;;;;17.57;8.20;;;;;;;;;;1779991;81;21160;-83
2021/01/17 03:02:50;;;;;;;26.27;9.83;;;;;;;;;;1779736;81;21164;-81
2021/01/17 03:05:17;;;;;;;23.43;8.67;;;;;;;;;;1777786;80;21131;-81
2021/01/17 03:07:48;;;;;;;17.73;7.93;;;;;;;;;;1774837;80;21152;-82
2021/01/17 03:10:14;;;;;;;16.33;8.07;;;;;;;;;;1773843;81;21734;-81
2021/01/17 03:12:40;;;;;;;21.47;9.13;;;;;;;;;;1728323;82;21158;-82
2021/01/17 03:15:06;;;;;;;21.73;8.73;;;;;;;;;;1690221;85;21577;-83
2021/01/17 03:17:33;;;;;;;20.60;8.53;;;;;;;;;;1756578;82;21196;-83
2021/01/17 03:19:59;;;;;;;18.17;8.20;;;;;;;;;;1755164;81;21192;-84
2021/01/17 03:22:25;;;;;;;20.80;8.23;;;;;;;;;;1760713;81;21290;-84
2021/01/17 03:24:51;;;;;;;19.93;7.90;;;;;;;;;;1769279;81;21203;-84
2021/01/17 03:27:17;;;;;;;22.23;9.20;;;;;;;;;;1769143;81;21584;-85
2021/01/17 03:29:43;;;;;;;25.40;8.87;;;;;;;;;;1769048;81;21294;-83
2021/01/17 03:32:09;;;;;;;21.33;10.07;;;;;;;;;;1769302;81;21169;-82
2021/01/17 03:34:36;;;;;;;12.30;5.50;;;;;;;;;;1768793;81;21163;-83
2021/01/17 03:37:03;;;;;;;17.77;8.67;;;;;;;;;;1769359;81;21192;-83
2021/01/17 03:39:29;;;;;;;18.10;8.30;;;;;;;;;;1769108;81;21129;-82
2021/01/17 03:41:55;;;;;;;20.50;9.90;;;;;;;;;;1763823;81;21568;-80
2021/01/17 03:44:22;;;;;;;17.23;8.60;;;;;;;;;;1742283;82;21149;-82
2021/01/17 03:46:48;;;;;;;21.07;8.67;;;;;;;;;;1742429;82;21165;-82
2021/01/17 03:49:14;;;;;;;23.63;8.97;;;;;;;;;;1742459;82;21160;-82
2021/01/17 03:51:40;;;;;;;22.03;8.80;;;;;;;;;;1770072;81;21178;-81
2021/01/17 03:54:06;;;;;;;24.80;10.13;;;;;;;;;;1769302;81;21156;-80
2021/01/17 03:56:32;;;;;;;25.00;8.97;;;;;;;;;;1769123;81;21204;-80
2021/01/17 03:58:59;;;;;;;20.00;8.67;;;;;;;;;;1769274;81;21176;-81
2021/01/17 04:01:26;;;;;;;25.77;9.70;;;;;;;;;;1773783;79;21156;-81
2021/01/17 04:03:52;;;;;;;20.23;8.63;;;;;;;;;;1771801;81;21611;-81
2021/01/17 04:06:18;;;;;;;28.43;10.10;;;;;;;;;;1761205;80;21172;-81
2021/01/17 04:08:44;;;;;;;20.00;9.30;;;;;;;;;;1763897;81;21140;-82
2021/01/17 04:11:10;;;;;;;21.03;8.57;;;;;;;;;;1714841;84;21173;-82
2021/01/17 04:13:37;;;;;;;16.47;7.27;;;;;;;;;;1714759;83;21616;-82
2021/01/17 04:16:03;;;;;;;16.10;6.53;;;;;;;;;;1764152;81;21233;-82
2021/01/17 04:18:29;;;;;;;25.73;10.40;;;;;;;;;;1714922;84;21161;-82
2021/01/17 04:20:55;;;;;;;22.60;9.03;;;;;;;;;;1770249;80;21622;-80
2021/01/17 04:23:21;;;;;;;19.07;9.90;;;;;;;;;;1787005;80;21131;-80
2021/01/17 04:25:49;;;;;;;20.90;8.93;;;;;;;;;;1783381;80;21585;-80
2021/01/17 04:28:15;;;;;;;30.37;9.80;;;;;;;;;;1784150;80;21539;-80
2021/01/17 04:30:42;;;;;;;23.30;9.13;;;;;;;;;;1779443;80;21140;-81
2021/01/17 04:33:08;;;;;;;20.27;8.20;;;;;;;;;;1752632;80;21120;-79
2021/01/17 04:35:34;;;;;;;19.37;6.63;;;;;;;;;;1776059;80;21636;-80
2021/01/17 04:38:00;;;;;;;19.50;8.87;;;;;;;;;;1763351;80;21118;-81
2021/01/17 04:40:27;;;;;;;24.37;9.90;;;;;;;;;;1771263;80;21593;-82
2021/01/17 04:42:55;;;;;;;24.07;10.03;;;;;;;;;;1756297;82;21603;-81
2021/01/17 04:45:21;;;;;;;21.30;8.50;;;;;;;;;;1756186;82;21580;-81
2021/01/17 04:47:47;;;;;;;22.70;7.80;;;;;;;;;;1758721;80;21543;-81
2021/01/17 04:50:15;;;;;;;18.43;8.43;;;;;;;;;;1768907;80;21152;-82
2021/01/17 04:52:42;;;;;;;22.63;9.17;;;;;;;;;;1780665;80;21157;-81
2021/01/17 04:55:09;;;;;;;19.90;8.30;;;;;;;;;;1780741;80;21155;-82
2021/01/17 04:57:53;;;;;;;21.90;8.57;;;;;;;;;;1781010;80;21168;-82
2021/01/17 05:00:21;;;;;;;18.47;8.07;;;;;;;;;;1779896;80;21305;-81
2021/01/17 05:02:55;;;;;;;18.10;8.53;;;;;;;;;;1775847;80;21164;-82
2021/01/17 05:05:22;;;;;;;21.60;8.27;;;;;;;;;;1780794;80;21102;-84
2021/01/17 05:07:49;;;;;;;21.37;9.13;;;;;;;;;;1780764;80;21567;-81
2021/01/17 05:10:17;;;;;;;26.50;9.77;;;;;;;;;;1780876;80;21513;-81
2021/01/17 05:12:48;;;;;;;20.30;9.00;;;;;;;;;;1784141;80;21132;-81
2021/01/17 05:15:14;;;;;;;19.70;8.33;;;;;;;;;;1749943;82;21194;-82
2021/01/17 05:17:41;;;;;;;19.73;9.07;;;;;;;;;;1713436;82;21160;-82
2021/01/17 05:20:08;;;;;;;23.70;8.57;;;;;;;;;;1787386;80;21152;-81
2021/01/17 05:22:34;;;;;;;15.97;7.57;;;;;;;;;;1784988;80;21164;-81
2021/01/17 05:25:01;;;;;;;21.63;8.90;;;;;;;;;;1784939;80;21278;-81
2021/01/17 05:27:27;;;;;;;19.33;8.63;;;;;;;;;;1775394;80;21167;-81
2021/01/17 05:29:53;;;;;;;21.27;9.33;;;;;;;;;;1773836;80;21550;-84
2021/01/17 05:32:19;;;;;;;24.80;9.63;;;;;;;;;;1777907;80;21112;-84
2021/01/17 05:34:46;;;;;;;23.67;9.33;;;;;;;;;;1778205;80;21127;-83
2021/01/17 05:37:13;;;;;;;21.43;9.63;;;;;;;;;;1769395;80;21149;-82
2021/01/17 05:39:55;;;;;;;20.60;9.73;;;;;;;;;;1773691;80;21111;-81
2021/01/17 05:42:22;;;;;;;21.60;9.40;;;;;;;;;;1764408;80;21089;-82
2021/01/17 05:44:48;;;;;;;21.40;9.23;;;;;;;;;;1770174;80;21613;-81
2021/01/17 05:47:16;;;;;;;20.37;9.77;;;;;;;;;;1754247;82;21168;-82
2021/01/17 05:49:42;;;;;;;25.33;10.13;;;;;;;;;;1753435;82;21173;-83
2021/01/17 05:52:10;;;;;;;23.97;9.40;;;;;;;;;;1753941;82;21170;-82
2021/01/17 05:54:37;;;;;;;22.77;8.37;;;;;;;;;;1753928;82;21126;-81
2021/01/17 05:57:05;;;;;;;21.93;9.83;;;;;;;;;;1753997;82;21643;-82
2021/01/17 05:59:37;;;;;;;23.23;9.67;;;;;;;;;;1753375;81;21183;-82
2021/01/17 06:02:04;;;;;;;25.40;10.30;;;;;;;;;;1754425;82;21584;-82
2021/01/17 06:04:31;;;;;;;20.83;7.07;;;;;;;;;;1754214;82;21165;-83
2021/01/17 06:06:58;;;;;;;18.90;8.00;;;;;;;;;;1770883;80;21722;-83
2021/01/17 06:09:24;;;;;;;23.57;10.10;;;;;;;;;;1746520;82;21138;-82
2021/01/17 06:11:57;;;;;;;22.60;8.90;;;;;;;;;;1681412;84;21205;-82
2021/01/17 06:14:23;;;;;;;23.57;9.10;;;;;;;;;;1715502;84;21163;-82
2021/01/17 06:16:49;;;;;;;22.60;10.77;;;;;;;;;;1784745;80;21237;-82
2021/01/17 06:19:16;;;;;;;24.47;9.67;;;;;;;;;;1784785;80;21180;-82
2021/01/17 06:21:49;;;;;;;17.27;8.00;;;;;;;;;;1758361;80;21627;-83
2021/01/17 06:24:15;;;;;;;28.50;10.70;;;;;;;;;;1774852;80;21124;-82
2021/01/17 06:26:42;;;;;;;21.40;8.50;;;;;;;;;;1739579;81;21150;-84
2021/01/17 06:29:15;;;;;;;28.43;11.20;;;;;;;;;;1758408;81;21141;-84
2021/01/17 06:31:38;;;;;;;21.40;9.80;;;;;;;;;;1775899;80;21159;-82
2021/01/17 06:34:06;;;;;;;30.57;10.87;;;;;;;;;;1724912;82;21152;-83
2021/01/17 06:36:32;;;;;;;34.10;10.50;;;;;;;;;;1774304;81;21278;-82
2021/01/17 06:38:59;;;;;;;42.20;12.77;;;;;;;;;;1774149;81;21251;-76
2021/01/17 06:41:27;;;;;;;26.47;11.23;;;;;;;;;;1774424;81;21287;-76
2021/01/17 06:43:53;;;;;;;26.70;9.37;;;;;;;;;;1773320;81;21176;-78
2021/01/17 06:46:19;;;;;;;23.53;9.40;;;;;;;;;;1774575;81;22228;-76
2021/01/17 06:48:45;;;;;;;18.83;8.80;;;;;;;;;;1725011;83;21173;-77
2021/01/17 06:51:13;;;;;;;27.23;11.80;;;;;;;;;;1776151;80;21636;-78
2021/01/17 06:53:41;;;;;;;30.47;11.43;;;;;;;;;;1774347;80;21156;-79
2021/01/17 06:56:16;;;;;;;27.87;10.20;;;;;;;;;;1743888;81;21160;-78
2021/01/17 06:58:43;;;;;;;22.30;9.57;;;;;;;;;;1770829;80;21161;-82
2021/01/17 07:01:09;;;;;;;35.90;13.53;;;;;;;;;;1789468;80;21175;-78
2021/01/17 07:03:37;;;;;;;19.63;9.17;;;;;;;;;;1789763;80;21152;-82
2021/01/17 07:06:10;;;;;;;34.37;10.50;;;;;;;;;;1785321;80;21100;-78
2021/01/17 07:08:50;;;;;;;24.73;10.53;;;;;;;;;;1779668;81;21556;-84
2021/01/17 07:11:27;;;;;;;16.70;8.07;;;;;;;;;;1758965;81;21317;-82
2021/01/17 07:13:53;;;;;;;28.30;10.53;;;;;;;;;;1758889;81;21140;-80
2021/01/17 07:16:21;;;;;;;22.30;10.27;;;;;;;;;;1760845;80;21144;-81
2021/01/17 07:18:48;;;;;;;22.10;11.03;;;;;;;;;;1767074;80;21148;-76
2021/01/17 07:21:14;;;;;;;24.97;8.60;;;;;;;;;;1773617;80;21149;-79
2021/01/17 07:23:40;;;;;;;21.87;9.77;;;;;;;;;;1748239;81;21151;-76
2021/01/17 07:26:06;;;;;;;34.00;11.40;;;;;;;;;;1764426;81;21558;-74
2021/01/17 07:28:33;;;;;;;26.83;10.53;;;;;;;;;;1773569;81;21139;-74
2021/01/17 07:31:01;;;;;;;24.23;10.63;;;;;;;;;;1770205;81;21590;-81
2021/01/17 07:33:28;;;;;;;20.20;7.07;;;;;;;;;;1763710;81;21569;-78
2021/01/17 07:36:04;;;;;;;35.03;10.90;;;;;;;;;;1774971;80;21148;-80
2021/01/17 07:38:33;;;;;;;23.07;10.27;;;;;;;;;;1774244;80;21122;-78
2021/01/17 07:41:01;;;;;;;34.30;13.80;;;;;;;;;;1779849;80;21082;-75
2021/01/17 07:43:27;;;;;;;18.00;7.93;;;;;;;;;;1773383;80;21117;-79
2021/01/17 07:45:54;;;;;;;29.70;13.17;;;;;;;;;;1777420;81;21563;-74
2021/01/17 07:48:20;;;;;;;22.47;11.40;;;;;;;;;;1777305;81;21175;-78
2021/01/17 07:50:47;;;;;;;24.27;10.57;;;;;;;;;;1777388;81;21148;-75
2021/01/17 07:53:14;;;;;;;19.20;10.67;;;;;;;;;;1778856;80;21521;-78
2021/01/17 07:55:41;;;;;;;22.60;9.87;;;;;;;;;;1777153;80;22065;-76
2021/01/17 07:58:09;;;;;;;30.47;10.50;;;;;;;;;;1773201;79;21129;-77
2021/01/17 08:00:36;;;;;;;32.63;14.03;;;;;;;;;;1779462;80;21117;-75
2021/01/17 08:03:02;;;;;;;32.33;12.97;;;;;;;;;;1776219;79;21160;-76
2021/01/17 08:05:47;;;;;;;37.67;13.77;;;;;;;;;;1780148;80;21524;-75
2021/01/17 08:08:18;;;;;;;32.10;11.90;;;;;;;;;;1779124;80;21128;-72
2021/01/17 08:10:44;;;;;;;25.60;13.33;;;;;;;;;;1773796;80;21172;-81
2021/01/17 08:13:16;;;;;;;32.70;13.27;;;;;;;;;;1768779;81;21125;-73
2021/01/17 08:15:43;;;;;;;23.27;11.07;;;;;;;;;;1695829;84;21184;-79
2021/01/17 08:18:09;;;;;;;35.07;12.93;;;;;;;;;;1777356;81;21168;-74
2021/01/17 08:20:35;;;;;;;34.00;14.57;;;;;;;;;;1777237;80;21183;-76
2021/01/17 08:23:02;;;;;;;25.87;12.67;;;;;;;;;;1769825;81;21315;-75
2021/01/17 08:25:46;;;;;;;32.80;13.57;;;;;;;;;;1769148;81;21584;-75
2021/01/17 08:28:28;;;;;;;35.75;11.05;;;;;;;;;;1770281;81;21145;-74
2021/01/17 08:30:55;;;;;;;30.37;13.13;;;;;;;;;;1774924;79;21270;-75
2021/01/17 08:33:21;;;;;;;29.77;11.87;;;;;;;;;;1760691;79;21136;-78
2021/01/17 08:35:47;;;;;;;21.70;11.03;;;;;;;;;;1736218;80;21116;-73
2021/01/17 08:38:14;;;;;;;25.97;11.10;;;;;;;;;;1775064;81;21714;-79
2021/01/17 08:40:41;;;;;;;35.97;15.07;;;;;;;;;;1779659;79;21541;-76
2021/01/17 08:43:07;;;;;;;31.10;13.63;;;;;;;;;;1778571;79;21089;-74
2021/01/17 08:45:38;;;;;;;46.60;19.10;;;;;;;;;;1781501;79;21105;-80
2021/01/17 08:48:18;;;;;;;37.10;16.50;;;;;;;;;;1741228;82;21594;-74
2021/01/17 08:50:47;;;;;;;32.03;13.63;;;;;;;;;;1731604;83;21153;-81
2021/01/17 08:53:25;;;;;;;27.70;12.37;;;;;;;;;;1738822;82;21575;-73
2021/01/17 08:55:52;;;;;;;30.43;11.70;;;;;;;;;;1779647;80;21184;-75
2021/01/17 08:58:27;;;;;;;23.57;11.47;;;;;;;;;;1773976;80;21569;-81
2021/01/17 09:00:59;;;;;;;32.70;14.80;;;;;;;;;;1770193;81;21207;-77
2021/01/17 09:03:31;;;;;;;21.45;10.82;;;;;;;;;;1763435;81;21161;-81
2021/01/17 09:05:57;;;;;;;43.10;17.60;;;;;;;;;;1772667;80;21168;-77
2021/01/17 09:08:27;;;;;;;39.15;16.75;;;;;;;;;;1764934;80;21181;-79
2021/01/17 09:10:54;;;;;;;45.48;18.07;;;;;;;;;;1766496;80;21152;-83
2021/01/17 09:13:20;;;;;;;23.75;12.73;;;;;;;;;;1771852;80;21144;-80
2021/01/17 09:15:48;;;;;;;22.77;11.45;;;;;;;;;;1766071;80;21105;-79
2021/01/17 09:18:14;;;;;;;31.20;14.90;;;;;;;;;;1761920;80;21152;-86
2021/01/17 09:20:41;;;;;;;23.10;11.15;;;;;;;;;;1752140;81;21625;-85
2021/01/17 09:23:10;;;;;;;27.13;11.83;;;;;;;;;;1733740;81;21159;-83
2021/01/17 09:25:36;;;;;;;15.70;6.92;;;;;;;;;;1758258;81;21143;-81
2021/01/17 09:28:02;;;;;;;18.45;8.60;;;;;;;;;;1752289;81;21595;-84
2021/01/17 09:30:29;;;;;;;11.57;7.28;;;;;;;;;;1755332;80;21693;-84
2021/01/17 09:32:55;;;;;;;21.02;11.38;;;;;;;;;;1751311;79;21139;-80
2021/01/17 09:35:21;;;;;;;16.70;8.80;;;;;;;;;;1678191;83;21151;-82
2021/01/17 09:37:47;;;;;;;31.73;13.83;;;;;;;;;;1742738;81;21108;-85
2021/01/17 09:40:14;;;;;;;26.42;12.13;;;;;;;;;;1714877;81;21123;-84
2021/01/17 09:42:40;;;;;;;23.57;11.10;;;;;;;;;;1735609;81;21112;-82
2021/01/17 09:45:10;;;;;;;22.20;10.58;;;;;;;;;;1742195;81;21132;-81
2021/01/17 09:47:36;;;;;;;23.25;9.05;;;;;;;;;;1737455;81;21121;-82
2021/01/17 09:50:06;;;;;;;21.90;8.88;;;;;;;;;;1758570;80;21554;-83
2021/01/17 09:52:34;;;;;;;27.93;10.85;;;;;;;;;;1744864;81;21140;-83
2021/01/17 09:55:00;;;;;;;29.63;14.18;;;;;;;;;;1755684;80;21108;-83
2021/01/17 09:57:27;;;;;;;19.23;10.93;;;;;;;;;;1753933;81;21168;-82
2021/01/17 09:59:54;;;;;;;31.07;14.03;;;;;;;;;;1744357;81;21159;-84
2021/01/17 10:02:20;;;;;;;28.80;14.55;;;;;;;;;;1743793;81;21120;-85
2021/01/17 10:04:46;;;;;;;30.15;15.50;;;;;;;;;;1742139;81;21176;-83
2021/01/17 10:07:13;;;;;;;34.53;17.62;;;;;;;;;;1726174;82;21168;-82
2021/01/17 10:09:39;;;;;;;26.02;14.85;;;;;;;;;;1744579;81;21136;-87
2021/01/17 10:12:06;;;;;;;32.75;16.40;;;;;;;;;;1740228;81;21131;-81
2021/01/17 10:14:32;;;;;;;24.80;12.05;;;;;;;;;;1750014;81;21274;-84
2021/01/17 10:16:59;;;;;;;26.62;14.70;;;;;;;;;;1756150;81;21128;-81
2021/01/17 10:19:26;;;;;;;33.75;16.90;;;;;;;;;;1746783;81;21154;-87
2021/01/17 10:21:52;;;;;;;35.10;17.35;;;;;;;;;;1750076;79;21150;-78
2021/01/17 10:24:26;;;;;;;33.70;18.45;;;;;;;;;;1783892;79;21990;-83
2021/01/17 10:26:53;;;;;;;29.52;16.80;;;;;;;;;;1764611;80;21146;-85
2021/01/17 10:29:20;;;;;;;33.78;19.37;;;;;;;;;;1756717;82;21172;-84
2021/01/17 10:31:47;;;;;;;42.88;19.27;;;;;;;;;;1776670;80;21513;-88
2021/01/17 10:34:15;;;;;;;31.68;18.30;;;;;;;;;;1787900;80;21270;-87
2021/01/17 10:36:41;;;;;;;37.65;20.68;;;;;;;;;;1762274;80;21521;-81
2021/01/17 10:39:07;;;;;;;39.23;22.60;;;;;;;;;;1761847;81;21290;-86
2021/01/17 10:41:33;;;;;;;35.23;20.52;;;;;;;;;;1782480;80;21574;-86
2021/01/17 10:44:06;;;;;;;33.55;19.55;;;;;;;;;;1787902;80;21297;-86
2021/01/17 10:46:33;;;;;;;33.08;17.42;;;;;;;;;;1787944;80;21801;-83
2021/01/17 10:49:07;;;;;;;44.48;23.32;;;;;;;;;;1786678;80;21160;-85
2021/01/17 10:51:52;;;;;;;46.28;24.45;;;;;;;;;;1785897;80;21116;-85
2021/01/17 10:54:30;;;;;;;42.50;23.98;;;;;;;;;;1787955;80;21301;-86
2021/01/17 10:56:56;;;;;;;41.80;23.25;;;;;;;;;;1787719;80;21112;-86
2021/01/17 10:59:24;;;;;;;39.53;23.38;;;;;;;;;;1741510;81;21159;-85
2021/01/17 11:01:51;;;;;;;35.98;21.12;;;;;;;;;;1779634;80;21139;-85
2021/01/17 11:04:17;;;;;;;35.48;22.17;;;;;;;;;;1782735;80;21572;-83
2021/01/17 11:06:44;;;;;;;33.45;21.02;;;;;;;;;;1782581;80;21126;-82
2021/01/17 11:09:11;;;;;;;35.48;21.55;;;;;;;;;;1787718;79;21153;-85
2021/01/17 11:11:47;;;;;;;36.13;22.73;;;;;;;;;;1788569;79;21132;-80
2021/01/17 11:14:13;;;;;;;36.48;21.12;;;;;;;;;;1741744;82;21620;-80
2021/01/17 11:16:41;;;;;;;40.95;23.75;;;;;;;;;;1686642;85;21164;-84
2021/01/17 11:19:08;;;;;;;35.52;22.17;;;;;;;;;;1717490;82;21104;-83
2021/01/17 11:21:34;;;;;;;35.63;21.68;;;;;;;;;;1728233;82;21114;-81
2021/01/17 11:24:00;;;;;;;32.65;20.88;;;;;;;;;;1730930;82;21143;-82
2021/01/17 11:26:26;;;;;;;35.52;22.32;;;;;;;;;;1729280;82;21114;-79
2021/01/17 11:28:54;;;;;;;35.60;22.85;;;;;;;;;;1730880;82;21201;-80
2021/01/17 11:31:21;;;;;;;38.95;24.20;;;;;;;;;;1759744;80;21109;-80
2021/01/17 11:33:48;;;;;;;38.58;24.67;;;;;;;;;;1767786;80;21558;-82
2021/01/17 11:36:21;;;;;;;39.35;25.77;;;;;;;;;;1741122;80;21470;-83
2021/01/17 11:38:49;;;;;;;42.38;27.62;;;;;;;;;;1761598;80;21570;-80
2021/01/17 11:41:17;;;;;;;41.10;26.23;;;;;;;;;;1731129;82;21159;-81
2021/01/17 11:43:43;;;;;;;39.05;24.80;;;;;;;;;;1761486;80;21550;-79
2021/01/17 11:46:10;;;;;;;37.63;22.10;;;;;;;;;;1770976;80;21162;-79
2021/01/17 11:48:36;;;;;;;35.90;22.65;;;;;;;;;;1766780;80;21115;-81
2021/01/17 11:51:03;;;;;;;36.15;22.75;;;;;;;;;;1764793;80;21126;-82
2021/01/17 11:53:29;;;;;;;34.60;22.17;;;;;;;;;;1767532;80;21127;-79
2021/01/17 11:55:55;;;;;;;36.35;22.30;;;;;;;;;;1771381;80;21557;-79
2021/01/17 11:58:21;;;;;;;35.23;21.87;;;;;;;;;;1756088;80;21118;-81
2021/01/17 12:00:54;;;;;;;34.13;21.77;;;;;;;;;;1752819;80;21099;-79
2021/01/17 12:03:21;;;;;;;35.38;22.00;;;;;;;;;;1748990;80;21130;-80
2021/01/17 12:06:01;;;;;;;33.98;21.97;;;;;;;;;;1770577;80;21594;-82
2021/01/17 12:08:30;;;;;;;31.48;20.12;;;;;;;;;;1769780;80;21565;-79
2021/01/17 12:11:00;;;;;;;32.15;19.30;;;;;;;;;;1756013;80;21573;-80
2021/01/17 12:13:26;;;;;;;29.37;19.12;;;;;;;;;;1763709;80;21172;-77
2021/01/17 12:15:52;;;;;;;29.52;19.12;;;;;;;;;;1755987;80;21578;-78
2021/01/17 12:18:18;;;;;;;29.30;19.07;;;;;;;;;;1763920;80;21570;-79
2021/01/17 12:20:44;;;;;;;30.85;19.65;;;;;;;;;;1766156;80;21142;-81
2021/01/17 12:23:11;;;;;;;34.60;20.88;;;;;;;;;;1766850;80;21160;-78
2021/01/17 12:25:37;;;;;;;36.25;20.05;;;;;;;;;;1760820;81;21552;-79
2021/01/17 12:28:03;;;;;;;37.53;19.45;;;;;;;;;;1767966;81;21540;-82
2021/01/17 12:30:29;;;;;;;34.45;19.62;;;;;;;;;;1775037;81;21108;-83
2021/01/17 12:32:56;;;;;;;38.67;20.97;;;;;;;;;;1777318;81;21172;-82
2021/01/17 12:35:22;;;;;;;41.18;21.75;;;;;;;;;;1777502;81;21120;-81
2021/01/17 12:37:48;;;;;;;42.25;21.52;;;;;;;;;;1777441;81;21149;-78
2021/01/17 12:40:14;;;;;;;39.63;20.30;;;;;;;;;;1777399;81;21163;-77
2021/01/17 12:42:40;;;;;;;37.33;19.50;;;;;;;;;;1749086;81;21093;-82
2021/01/17 12:45:07;;;;;;;37.73;18.77;;;;;;;;;;1746719;82;21141;-82
2021/01/17 12:47:33;;;;;;;35.48;18.75;;;;;;;;;;1746661;82;21164;-78
2021/01/17 12:49:59;;;;;;;26.42;14.03;;;;;;;;;;1746556;82;21159;-78
2021/01/17 12:52:25;;;;;;;37.63;15.93;;;;;;;;;;1746719;82;21152;-78
2021/01/17 12:54:51;;;;;;;33.67;14.85;;;;;;;;;;1770856;81;21152;-79
2021/01/17 12:57:18;;;;;;;31.00;13.53;;;;;;;;;;1746766;82;21151;-78
2021/01/17 12:59:44;;;;;;;28.47;12.73;;;;;;;;;;1747427;81;21192;-82
2021/01/17 13:02:10;;;;;;;32.58;14.03;;;;;;;;;;1747191;81;21133;-81
2021/01/17 13:04:36;;;;;;;35.80;15.13;;;;;;;;;;1747190;82;21156;-82
2021/01/17 13:07:03;;;;;;;29.77;12.63;;;;;;;;;;1746749;82;21576;-77
2021/01/17 13:09:29;;;;;;;28.85;13.15;;;;;;;;;;1767647;81;21136;-79
2021/01/17 13:11:57;;;;;;;28.35;12.28;;;;;;;;;;1775043;81;21148;-78
2021/01/17 13:14:23;;;;;;;32.28;14.00;;;;;;;;;;1751593;81;21129;-77
2021/01/17 13:16:50;;;;;;;27.80;13.03;;;;;;;;;;1759783;81;21143;-81
2021/01/17 13:19:16;;;;;;;34.38;14.35;;;;;;;;;;1775156;81;21140;-77
2021/01/17 13:25:02;;;;;;;34.27;14.10;;;;;;;;;;1808333;79;23087;-83
2021/01/17 13:27:29;;;;;;;31.12;13.48;;;;;;;;;;1795713;80;21139;-78
2021/01/17 13:29:55;;;;;;;24.07;9.68;;;;;;;;;;1797202;78;21578;-81
2021/01/17 13:32:21;;;;;;;32.33;12.95;;;;;;;;;;1797235;78;21163;-78
2021/01/17 13:34:48;;;;;;;30.75;13.85;;;;;;;;;;1771354;80;21100;-82
2021/01/17 13:37:19;;;;;;;38.35;13.68;;;;;;;;;;1750997;81;21137;-79
2021/01/17 13:39:59;;;;;;;31.70;15.25;;;;;;;;;;1729063;81;21170;-81
2021/01/17 13:42:18;;;;;;;41.10;17.05;;;;;;;;;;1762667;80;21179;-79
2021/01/17 13:44:46;;;;;;;34.13;15.32;;;;;;;;;;1749867;81;21127;-81
2021/01/17 13:47:14;;;;;;;36.15;15.48;;;;;;;;;;1746707;81;21194;-81
2021/01/17 13:49:40;;;;;;;39.38;15.85;;;;;;;;;;1757174;81;21128;-78
2021/01/17 13:52:06;;;;;;;26.05;12.80;;;;;;;;;;1767920;81;21172;-82
2021/01/17 13:54:33;;;;;;;31.40;14.63;;;;;;;;;;1760717;81;21219;-82
2021/01/17 13:57:00;;;;;;;31.02;15.32;;;;;;;;;;1780884;80;21139;-79
2021/01/17 13:59:28;;;;;;;33.33;13.28;;;;;;;;;;1779266;80;21145;-79
2021/01/17 14:01:54;;;;;;;36.80;14.98;;;;;;;;;;1784703;80;21222;-78
2021/01/17 14:04:20;;;;;;;39.78;17.12;;;;;;;;;;1767464;80;21132;-78
2021/01/17 14:06:47;;;;;;;37.67;15.88;;;;;;;;;;1735933;81;21172;-78
2021/01/17 14:09:13;;;;;;;36.63;16.42;;;;;;;;;;1764020;81;21135;-81
2021/01/17 14:11:43;;;;;;;29.37;13.68;;;;;;;;;;1767352;80;21138;-82
2021/01/17 14:14:10;;;;;;;41.55;16.15;;;;;;;;;;1760476;81;21118;-82
2021/01/17 14:16:41;;;;;;;38.60;15.70;;;;;;;;;;1770943;80;21618;-78
2021/01/17 14:19:07;;;;;;;38.65;15.83;;;;;;;;;;1729347;81;21140;-78
2021/01/17 14:21:42;;;;;;;34.63;15.78;;;;;;;;;;1772032;80;21191;-79
2021/01/17 14:24:08;;;;;;;32.93;15.57;;;;;;;;;;1789091;80;21143;-79
2021/01/17 14:26:34;;;;;;;33.08;14.43;;;;;;;;;;1740063;82;21345;-82
2021/01/17 14:29:02;;;;;;;29.87;13.60;;;;;;;;;;1761098;80;21138;-79